METAR Formatted Surface Weather Observation
Issued by NWS

Home | Current Version | Previous Version | Text Only | Print | Product List | Glossary On
Versions: 1
000
SPZS31 NSTU 012243
MTRSPP
SPECI NSTU 012239Z 12011KT 11SM FEW008 BKN016TCU BKN040 30/26 A2982
RMK TCU ALQDS=


USA.gov is the U.S. government's official web portal to all federal, state and local government web resources and services.